sensor_id;sensor_type;location;lat;lon;timestamp;temperature;humidity
8988;DHT22;4529;51.360;12.474;2022-11-03T00:02:04;7.90;99.90
8988;DHT22;4529;51.360;12.474;2022-11-03T00:07:08;7.80;99.90
8988;DHT22;4529;51.360;12.474;2022-11-03T00:12:11;7.80;99.90
8988;DHT22;4529;51.360;12.474;2022-11-03T00:17:15;7.80;99.90
8988;DHT22;4529;51.360;12.474;2022-11-03T00:22:18;7.80;99.90
8988;DHT22;4529;51.360;12.474;2022-11-03T00:27:22;7.80;99.90
8988;DHT22;4529;51.360;12.474;2022-11-03T00:32:25;7.70;99.90
8988;DHT22;4529;51.360;12.474;2022-11-03T00:37:29;7.60;99.90
8988;DHT22;4529;51.360;12.474;2022-11-03T00:42:33;7.60;99.90
8988;DHT22;4529;51.360;12.474;2022-11-03T00:47:36;7.60;99.90
8988;DHT22;4529;51.360;12.474;2022-11-03T00:52:40;7.60;99.90
8988;DHT22;4529;51.360;12.474;2022-11-03T00:57:43;7.70;99.90
8988;DHT22;4529;51.360;12.474;2022-11-03T01:02:47;8.00;99.90
8988;DHT22;4529;51.360;12.474;2022-11-03T01:07:51;7.80;99.90
8988;DHT22;4529;51.360;12.474;2022-11-03T01:12:55;7.60;99.90
8988;DHT22;4529;51.360;12.474;2022-11-03T01:17:59;7.40;99.90
8988;DHT22;4529;51.360;12.474;2022-11-03T01:23:03;7.40;99.90
8988;DHT22;4529;51.360;12.474;2022-11-03T01:28:07;7.40;99.90
8988;DHT22;4529;51.360;12.474;2022-11-03T01:33:10;7.30;99.90
8988;DHT22;4529;51.360;12.474;2022-11-03T01:38:13;7.30;99.90
8988;DHT22;4529;51.360;12.474;2022-11-03T01:43:18;7.20;99.90
8988;DHT22;4529;51.360;12.474;2022-11-03T01:48:20;7.20;99.90
8988;DHT22;4529;51.360;12.474;2022-11-03T01:53:24;7.20;99.90
8988;DHT22;4529;51.360;12.474;2022-11-03T01:58:30;7.40;99.90
8988;DHT22;4529;51.360;12.474;2022-11-03T02:03:34;7.60;99.90
8988;DHT22;4529;51.360;12.474;2022-11-03T02:08:39;7.60;99.90
8988;DHT22;4529;51.360;12.474;2022-11-03T02:13:41;7.60;99.90
8988;DHT22;4529;51.360;12.474;2022-11-03T02:18:44;7.60;99.90
8988;DHT22;4529;51.360;12.474;2022-11-03T02:24:14;7.60;99.90
8988;DHT22;4529;51.360;12.474;2022-11-03T02:29:15;7.60;99.90
8988;DHT22;4529;51.360;12.474;2022-11-03T02:34:41;7.70;99.90
8988;DHT22;4529;51.360;12.474;2022-11-03T02:40:38;7.60;99.90
8988;DHT22;4529;51.360;12.474;2022-11-03T02:44:56;7.30;99.90
8988;DHT22;4529;51.360;12.474;2022-11-03T02:49:59;7.20;99.90
8988;DHT22;4529;51.360;12.474;2022-11-03T03:00:15;7.10;99.90
8988;DHT22;4529;51.360;12.474;2022-11-03T03:05:20;7.00;99.90
8988;DHT22;4529;51.360;12.474;2022-11-03T03:10:23;6.90;99.90
8988;DHT22;4529;51.360;12.474;2022-11-03T03:21:04;6.80;99.90
8988;DHT22;4529;51.360;12.474;2022-11-03T03:26:57;6.60;99.90
8988;DHT22;4529;51.360;12.474;2022-11-03T03:31:16;6.70;99.90
8988;DHT22;4529;51.360;12.474;2022-11-03T03:36:19;6.60;99.90
8988;DHT22;4529;51.360;12.474;2022-11-03T03:41:23;6.70;99.90
8988;DHT22;4529;51.360;12.474;2022-11-03T03:46:30;6.70;99.90
8988;DHT22;4529;51.360;12.474;2022-11-03T03:51:30;6.70;99.90
8988;DHT22;4529;51.360;12.474;2022-11-03T03:56:47;6.70;99.90
8988;DHT22;4529;51.360;12.474;2022-11-03T04:01:46;6.70;99.90
8988;DHT22;4529;51.360;12.474;2022-11-03T04:06:50;6.70;99.90
8988;DHT22;4529;51.360;12.474;2022-11-03T04:11:53;6.70;99.90
8988;DHT22;4529;51.360;12.474;2022-11-03T04:16:57;6.70;99.90
8988;DHT22;4529;51.360;12.474;2022-11-03T04:22:01;6.70;99.90
8988;DHT22;4529;51.360;12.474;2022-11-03T04:27:21;6.70;99.90
8988;DHT22;4529;51.360;12.474;2022-11-03T04:32:20;6.70;99.90
8988;DHT22;4529;51.360;12.474;2022-11-03T04:37:27;6.50;99.90
8988;DHT22;4529;51.360;12.474;2022-11-03T04:42:28;6.40;99.90
8988;DHT22;4529;51.360;12.474;2022-11-03T04:47:30;6.40;99.90
8988;DHT22;4529;51.360;12.474;2022-11-03T04:52:35;6.50;99.90
8988;DHT22;4529;51.360;12.474;2022-11-03T04:57:38;6.50;99.90
8988;DHT22;4529;51.360;12.474;2022-11-03T05:02:44;6.40;99.90
8988;DHT22;4529;51.360;12.474;2022-11-03T05:07:48;6.40;99.90
8988;DHT22;4529;51.360;12.474;2022-11-03T05:12:52;6.40;99.90
8988;DHT22;4529;51.360;12.474;2022-11-03T05:17:55;6.50;99.90
8988;DHT22;4529;51.360;12.474;2022-11-03T05:22:58;6.60;99.90
8988;DHT22;4529;51.360;12.474;2022-11-03T05:28:02;6.80;99.90
8988;DHT22;4529;51.360;12.474;2022-11-03T05:33:28;6.70;99.90
8988;DHT22;4529;51.360;12.474;2022-11-03T05:38:31;6.70;99.90
8988;DHT22;4529;51.360;12.474;2022-11-03T05:43:34;6.70;99.90
8988;DHT22;4529;51.360;12.474;2022-11-03T05:48:38;6.70;99.90
8988;DHT22;4529;51.360;12.474;2022-11-03T05:53:41;6.60;99.90
8988;DHT22;4529;51.360;12.474;2022-11-03T05:58:44;6.40;99.90
8988;DHT22;4529;51.360;12.474;2022-11-03T06:03:48;6.30;99.90
8988;DHT22;4529;51.360;12.474;2022-11-03T06:08:52;6.00;99.90
8988;DHT22;4529;51.360;12.474;2022-11-03T06:13:56;6.00;99.90
8988;DHT22;4529;51.360;12.474;2022-11-03T06:19:00;6.00;99.90
8988;DHT22;4529;51.360;12.474;2022-11-03T06:24:03;6.20;99.90
8988;DHT22;4529;51.360;12.474;2022-11-03T06:29:16;6.20;99.90
8988;DHT22;4529;51.360;12.474;2022-11-03T06:34:29;6.30;99.90
8988;DHT22;4529;51.360;12.474;2022-11-03T06:39:25;6.50;99.90
8988;DHT22;4529;51.360;12.474;2022-11-03T06:44:29;6.70;99.90
8988;DHT22;4529;51.360;12.474;2022-11-03T06:49:34;7.10;99.90
8988;DHT22;4529;51.360;12.474;2022-11-03T06:54:37;7.10;99.90
8988;DHT22;4529;51.360;12.474;2022-11-03T06:59:41;7.60;99.90
8988;DHT22;4529;51.360;12.474;2022-11-03T07:04:45;8.10;99.90
8988;DHT22;4529;51.360;12.474;2022-11-03T07:09:49;8.30;99.90
8988;DHT22;4529;51.360;12.474;2022-11-03T07:14:53;8.40;99.90
8988;DHT22;4529;51.360;12.474;2022-11-03T07:19:57;8.40;99.90
8988;DHT22;4529;51.360;12.474;2022-11-03T07:25:00;8.60;99.90
8988;DHT22;4529;51.360;12.474;2022-11-03T07:30:28;8.70;99.90
8988;DHT22;4529;51.360;12.474;2022-11-03T07:35:35;8.70;99.90
8988;DHT22;4529;51.360;12.474;2022-11-03T07:40:38;9.00;99.90
8988;DHT22;4529;51.360;12.474;2022-11-03T07:45:49;9.40;99.90
8988;DHT22;4529;51.360;12.474;2022-11-03T07:50:56;9.70;99.90
8988;DHT22;4529;51.360;12.474;2022-11-03T07:55:58;9.70;99.90
8988;DHT22;4529;51.360;12.474;2022-11-03T08:01:07;10.40;99.90
8988;DHT22;4529;51.360;12.474;2022-11-03T08:06:06;10.40;99.90
8988;DHT22;4529;51.360;12.474;2022-11-03T08:11:10;10.50;99.90
8988;DHT22;4529;51.360;12.474;2022-11-03T08:16:13;10.60;99.90
8988;DHT22;4529;51.360;12.474;2022-11-03T08:21:17;10.80;99.90
8988;DHT22;4529;51.360;12.474;2022-11-03T08:26:20;11.00;99.90
8988;DHT22;4529;51.360;12.474;2022-11-03T08:31:23;11.50;99.90
8988;DHT22;4529;51.360;12.474;2022-11-03T08:36:27;11.80;99.90
8988;DHT22;4529;51.360;12.474;2022-11-03T08:41:30;12.10;99.90
8988;DHT22;4529;51.360;12.474;2022-11-03T08:46:35;12.40;99.90
8988;DHT22;4529;51.360;12.474;2022-11-03T08:51:38;12.40;99.90
8988;DHT22;4529;51.360;12.474;2022-11-03T08:56:41;12.50;99.90
8988;DHT22;4529;51.360;12.474;2022-11-03T09:01:45;12.60;99.90
8988;DHT22;4529;51.360;12.474;2022-11-03T09:06:48;12.70;99.90
8988;DHT22;4529;51.360;12.474;2022-11-03T09:11:52;12.90;99.90
8988;DHT22;4529;51.360;12.474;2022-11-03T09:16:56;12.90;99.90
8988;DHT22;4529;51.360;12.474;2022-11-03T09:21:59;13.00;99.90
8988;DHT22;4529;51.360;12.474;2022-11-03T09:27:03;13.00;99.90
8988;DHT22;4529;51.360;12.474;2022-11-03T09:32:06;13.10;99.90
8988;DHT22;4529;51.360;12.474;2022-11-03T09:37:10;13.20;99.90
8988;DHT22;4529;51.360;12.474;2022-11-03T09:42:14;13.40;99.90
8988;DHT22;4529;51.360;12.474;2022-11-03T09:47:26;13.40;99.90
8988;DHT22;4529;51.360;12.474;2022-11-03T09:52:27;13.50;99.90
8988;DHT22;4529;51.360;12.474;2022-11-03T09:57:30;13.50;99.90
8988;DHT22;4529;51.360;12.474;2022-11-03T10:02:34;13.60;99.90
8988;DHT22;4529;51.360;12.474;2022-11-03T10:07:37;13.70;99.90
8988;DHT22;4529;51.360;12.474;2022-11-03T10:12:41;13.60;99.90
8988;DHT22;4529;51.360;12.474;2022-11-03T10:17:44;13.70;99.90
8988;DHT22;4529;51.360;12.474;2022-11-03T10:22:51;13.70;99.90
8988;DHT22;4529;51.360;12.474;2022-11-03T10:33:31;13.60;99.90
8988;DHT22;4529;51.360;12.474;2022-11-03T10:38:34;13.70;99.90
8988;DHT22;4529;51.360;12.474;2022-11-03T10:43:39;13.70;99.90
8988;DHT22;4529;51.360;12.474;2022-11-03T10:48:43;13.70;99.90
8988;DHT22;4529;51.360;12.474;2022-11-03T10:53:47;13.60;99.90
8988;DHT22;4529;51.360;12.474;2022-11-03T10:58:51;13.60;99.90
8988;DHT22;4529;51.360;12.474;2022-11-03T11:03:55;13.60;99.90
8988;DHT22;4529;51.360;12.474;2022-11-03T11:09:00;13.70;99.90
8988;DHT22;4529;51.360;12.474;2022-11-03T11:19:29;13.70;99.90
8988;DHT22;4529;51.360;12.474;2022-11-03T11:29:46;13.80;99.90
8988;DHT22;4529;51.360;12.474;2022-11-03T11:34:50;13.90;99.90
8988;DHT22;4529;51.360;12.474;2022-11-03T11:39:54;14.00;99.90
8988;DHT22;4529;51.360;12.474;2022-11-03T11:44:59;14.10;99.90
8988;DHT22;4529;51.360;12.474;2022-11-03T11:55:27;14.20;99.90
8988;DHT22;4529;51.360;12.474;2022-11-03T12:00:31;14.20;99.90
8988;DHT22;4529;51.360;12.474;2022-11-03T12:05:34;14.40;99.90
8988;DHT22;4529;51.360;12.474;2022-11-03T12:10:37;14.40;99.90
8988;DHT22;4529;51.360;12.474;2022-11-03T12:15:56;14.40;99.90
8988;DHT22;4529;51.360;12.474;2022-11-03T12:20:59;14.50;99.90
8988;DHT22;4529;51.360;12.474;2022-11-03T12:26:03;14.40;99.90
8988;DHT22;4529;51.360;12.474;2022-11-03T12:31:07;14.50;99.90
8988;DHT22;4529;51.360;12.474;2022-11-03T12:36:11;14.60;99.90
8988;DHT22;4529;51.360;12.474;2022-11-03T12:41:15;14.70;99.90
8988;DHT22;4529;51.360;12.474;2022-11-03T12:46:19;14.70;99.90
8988;DHT22;4529;51.360;12.474;2022-11-03T12:51:23;14.80;99.90
8988;DHT22;4529;51.360;12.474;2022-11-03T12:56:26;14.80;99.90
8988;DHT22;4529;51.360;12.474;2022-11-03T13:01:29;14.90;99.90
8988;DHT22;4529;51.360;12.474;2022-11-03T13:06:33;15.00;99.90
8988;DHT22;4529;51.360;12.474;2022-11-03T13:11:37;15.00;99.90
8988;DHT22;4529;51.360;12.474;2022-11-03T13:16:41;14.90;99.90
8988;DHT22;4529;51.360;12.474;2022-11-03T13:21:46;14.90;99.90
8988;DHT22;4529;51.360;12.474;2022-11-03T13:26:49;14.90;99.90
8988;DHT22;4529;51.360;12.474;2022-11-03T13:31:53;15.00;99.90
8988;DHT22;4529;51.360;12.474;2022-11-03T13:36:56;15.00;99.90
8988;DHT22;4529;51.360;12.474;2022-11-03T13:41:59;15.10;99.90
8988;DHT22;4529;51.360;12.474;2022-11-03T13:47:03;15.00;99.90
8988;DHT22;4529;51.360;12.474;2022-11-03T13:52:07;15.00;99.90
8988;DHT22;4529;51.360;12.474;2022-11-03T13:57:10;14.90;99.90
8988;DHT22;4529;51.360;12.474;2022-11-03T14:02:13;14.90;99.90
8988;DHT22;4529;51.360;12.474;2022-11-03T14:07:17;14.90;99.90
8988;DHT22;4529;51.360;12.474;2022-11-03T14:12:20;14.90;99.90
8988;DHT22;4529;51.360;12.474;2022-11-03T14:17:24;14.70;99.90
8988;DHT22;4529;51.360;12.474;2022-11-03T14:22:29;14.70;99.90
8988;DHT22;4529;51.360;12.474;2022-11-03T14:27:33;14.90;99.90
8988;DHT22;4529;51.360;12.474;2022-11-03T14:32:37;15.10;99.90
8988;DHT22;4529;51.360;12.474;2022-11-03T14:37:41;15.20;99.90
8988;DHT22;4529;51.360;12.474;2022-11-03T14:42:45;15.20;99.90
8988;DHT22;4529;51.360;12.474;2022-11-03T14:47:49;15.20;99.90
8988;DHT22;4529;51.360;12.474;2022-11-03T14:52:53;15.20;99.90
8988;DHT22;4529;51.360;12.474;2022-11-03T14:57:57;14.90;99.90
8988;DHT22;4529;51.360;12.474;2022-11-03T15:03:02;14.50;99.90
8988;DHT22;4529;51.360;12.474;2022-11-03T15:08:06;14.20;99.90
8988;DHT22;4529;51.360;12.474;2022-11-03T15:13:10;14.10;99.90
8988;DHT22;4529;51.360;12.474;2022-11-03T15:18:14;14.00;99.90
8988;DHT22;4529;51.360;12.474;2022-11-03T15:23:18;13.90;99.90
8988;DHT22;4529;51.360;12.474;2022-11-03T15:28:22;13.90;99.90
8988;DHT22;4529;51.360;12.474;2022-11-03T15:33:26;13.80;99.90
8988;DHT22;4529;51.360;12.474;2022-11-03T15:38:30;13.70;99.90
8988;DHT22;4529;51.360;12.474;2022-11-03T15:43:35;13.60;99.90
8988;DHT22;4529;51.360;12.474;2022-11-03T15:48:39;13.60;99.90
8988;DHT22;4529;51.360;12.474;2022-11-03T15:53:43;13.50;99.90
8988;DHT22;4529;51.360;12.474;2022-11-03T15:58:47;13.40;99.90
8988;DHT22;4529;51.360;12.474;2022-11-03T16:03:51;13.30;99.90
8988;DHT22;4529;51.360;12.474;2022-11-03T16:08:55;13.30;99.90
8988;DHT22;4529;51.360;12.474;2022-11-03T16:13:59;13.10;99.90
8988;DHT22;4529;51.360;12.474;2022-11-03T16:19:04;13.00;99.90
8988;DHT22;4529;51.360;12.474;2022-11-03T16:24:07;13.00;99.90
8988;DHT22;4529;51.360;12.474;2022-11-03T16:29:11;13.00;99.90
8988;DHT22;4529;51.360;12.474;2022-11-03T16:34:15;13.00;99.90
8988;DHT22;4529;51.360;12.474;2022-11-03T16:39:18;12.90;99.90
8988;DHT22;4529;51.360;12.474;2022-11-03T16:44:22;12.80;99.90
8988;DHT22;4529;51.360;12.474;2022-11-03T16:49:26;12.80;99.90
8988;DHT22;4529;51.360;12.474;2022-11-03T16:54:30;12.90;99.90
8988;DHT22;4529;51.360;12.474;2022-11-03T16:59:34;12.90;99.90
8988;DHT22;4529;51.360;12.474;2022-11-03T17:04:38;13.00;99.90
8988;DHT22;4529;51.360;12.474;2022-11-03T17:09:42;13.00;99.90
8988;DHT22;4529;51.360;12.474;2022-11-03T17:14:47;13.00;99.90
8988;DHT22;4529;51.360;12.474;2022-11-03T17:19:51;13.00;99.90
8988;DHT22;4529;51.360;12.474;2022-11-03T17:24:55;13.00;99.90
8988;DHT22;4529;51.360;12.474;2022-11-03T17:30:03;13.00;99.90
8988;DHT22;4529;51.360;12.474;2022-11-03T17:35:17;12.90;99.90
8988;DHT22;4529;51.360;12.474;2022-11-03T17:40:19;12.90;99.90
8988;DHT22;4529;51.360;12.474;2022-11-03T17:45:23;12.90;99.90
8988;DHT22;4529;51.360;12.474;2022-11-03T17:50:26;12.80;99.90
8988;DHT22;4529;51.360;12.474;2022-11-03T17:55:30;12.80;99.90
8988;DHT22;4529;51.360;12.474;2022-11-03T18:00:32;12.80;99.90
8988;DHT22;4529;51.360;12.474;2022-11-03T18:05:36;12.70;99.90
8988;DHT22;4529;51.360;12.474;2022-11-03T18:10:43;12.60;99.90
8988;DHT22;4529;51.360;12.474;2022-11-03T18:16:02;12.50;99.90
8988;DHT22;4529;51.360;12.474;2022-11-03T18:20:55;12.40;99.90
8988;DHT22;4529;51.360;12.474;2022-11-03T18:26:02;12.30;99.90
8988;DHT22;4529;51.360;12.474;2022-11-03T18:31:02;12.10;99.90
8988;DHT22;4529;51.360;12.474;2022-11-03T18:36:08;11.60;99.90
8988;DHT22;4529;51.360;12.474;2022-11-03T18:41:16;11.60;99.90
8988;DHT22;4529;51.360;12.474;2022-11-03T18:46:19;11.30;99.90
8988;DHT22;4529;51.360;12.474;2022-11-03T18:51:24;11.30;99.90
8988;DHT22;4529;51.360;12.474;2022-11-03T18:56:28;11.20;99.90
8988;DHT22;4529;51.360;12.474;2022-11-03T19:01:32;11.10;99.90
8988;DHT22;4529;51.360;12.474;2022-11-03T19:06:36;11.00;99.90
8988;DHT22;4529;51.360;12.474;2022-11-03T19:11:40;10.90;99.90
8988;DHT22;4529;51.360;12.474;2022-11-03T19:16:44;10.90;99.90
8988;DHT22;4529;51.360;12.474;2022-11-03T19:21:48;10.80;99.90
8988;DHT22;4529;51.360;12.474;2022-11-03T19:26:59;10.70;99.90
8988;DHT22;4529;51.360;12.474;2022-11-03T19:32:02;10.70;99.90
8988;DHT22;4529;51.360;12.474;2022-11-03T19:37:07;10.60;99.90
8988;DHT22;4529;51.360;12.474;2022-11-03T19:42:17;10.50;99.90
8988;DHT22;4529;51.360;12.474;2022-11-03T19:47:20;10.50;99.90
8988;DHT22;4529;51.360;12.474;2022-11-03T19:52:24;10.50;99.90
8988;DHT22;4529;51.360;12.474;2022-11-03T19:57:27;10.40;99.90
8988;DHT22;4529;51.360;12.474;2022-11-03T20:02:32;10.20;99.90
8988;DHT22;4529;51.360;12.474;2022-11-03T20:07:36;10.10;99.90
8988;DHT22;4529;51.360;12.474;2022-11-03T20:12:40;9.90;99.90
8988;DHT22;4529;51.360;12.474;2022-11-03T20:17:44;10.00;99.90
8988;DHT22;4529;51.360;12.474;2022-11-03T20:22:57;9.90;99.90
8988;DHT22;4529;51.360;12.474;2022-11-03T20:28:15;9.90;99.90
8988;DHT22;4529;51.360;12.474;2022-11-03T20:33:17;9.80;99.90
8988;DHT22;4529;51.360;12.474;2022-11-03T20:38:21;9.50;99.90
8988;DHT22;4529;51.360;12.474;2022-11-03T20:43:29;9.60;99.90
8988;DHT22;4529;51.360;12.474;2022-11-03T20:48:31;9.60;99.90
8988;DHT22;4529;51.360;12.474;2022-11-03T20:53:35;9.50;99.90
8988;DHT22;4529;51.360;12.474;2022-11-03T20:58:38;9.40;99.90
8988;DHT22;4529;51.360;12.474;2022-11-03T21:03:42;9.30;99.90
8988;DHT22;4529;51.360;12.474;2022-11-03T21:08:46;9.30;99.90
8988;DHT22;4529;51.360;12.474;2022-11-03T21:13:51;9.30;99.90
8988;DHT22;4529;51.360;12.474;2022-11-03T21:18:54;9.30;99.90
8988;DHT22;4529;51.360;12.474;2022-11-03T21:23:57;9.30;99.90
8988;DHT22;4529;51.360;12.474;2022-11-03T21:29:01;9.20;99.90
8988;DHT22;4529;51.360;12.474;2022-11-03T21:34:05;9.20;99.90
8988;DHT22;4529;51.360;12.474;2022-11-03T21:39:09;9.10;99.90
8988;DHT22;4529;51.360;12.474;2022-11-03T21:44:13;9.10;99.90
8988;DHT22;4529;51.360;12.474;2022-11-03T21:49:16;9.10;99.90
8988;DHT22;4529;51.360;12.474;2022-11-03T21:54:20;9.00;99.90
8988;DHT22;4529;51.360;12.474;2022-11-03T21:59:24;8.90;99.90
8988;DHT22;4529;51.360;12.474;2022-11-03T22:04:27;8.90;99.90
8988;DHT22;4529;51.360;12.474;2022-11-03T22:09:31;8.90;99.90
8988;DHT22;4529;51.360;12.474;2022-11-03T22:14:34;8.70;99.90
8988;DHT22;4529;51.360;12.474;2022-11-03T22:19:38;8.70;99.90
8988;DHT22;4529;51.360;12.474;2022-11-03T22:24:42;8.50;99.90
8988;DHT22;4529;51.360;12.474;2022-11-03T22:29:46;8.40;99.90
8988;DHT22;4529;51.360;12.474;2022-11-03T22:34:49;8.40;99.90
8988;DHT22;4529;51.360;12.474;2022-11-03T22:39:53;8.40;99.90
8988;DHT22;4529;51.360;12.474;2022-11-03T22:44:56;8.40;99.90
8988;DHT22;4529;51.360;12.474;2022-11-03T22:50:00;8.30;99.90
8988;DHT22;4529;51.360;12.474;2022-11-03T22:55:04;8.30;99.90
8988;DHT22;4529;51.360;12.474;2022-11-03T23:00:08;8.20;99.90
8988;DHT22;4529;51.360;12.474;2022-11-03T23:05:11;8.10;99.90
8988;DHT22;4529;51.360;12.474;2022-11-03T23:10:14;8.00;99.90
8988;DHT22;4529;51.360;12.474;2022-11-03T23:15:19;8.20;99.90
8988;DHT22;4529;51.360;12.474;2022-11-03T23:20:23;8.20;99.90
8988;DHT22;4529;51.360;12.474;2022-11-03T23:25:27;8.20;99.90
8988;DHT22;4529;51.360;12.474;2022-11-03T23:30:30;8.20;99.90
8988;DHT22;4529;51.360;12.474;2022-11-03T23:35:34;8.30;99.90
8988;DHT22;4529;51.360;12.474;2022-11-03T23:40:37;8.30;99.90
8988;DHT22;4529;51.360;12.474;2022-11-03T23:45:41;8.40;99.90
8988;DHT22;4529;51.360;12.474;2022-11-03T23:50:44;8.50;99.90
8988;DHT22;4529;51.360;12.474;2022-11-03T23:55:48;8.50;99.90
